sensor_id;sensor_type;location;lat;lon;timestamp;temperature;humidity
35690;DHT22;26977;44.830;-0.674;2022-12-18T00:01:31;2.70;99.90
35690;DHT22;26977;44.830;-0.674;2022-12-18T00:03:59;2.60;99.90
35690;DHT22;26977;44.830;-0.674;2022-12-18T00:06:27;2.60;99.90
35690;DHT22;26977;44.830;-0.674;2022-12-18T00:08:55;2.60;99.90
35690;DHT22;26977;44.830;-0.674;2022-12-18T00:11:24;2.60;99.90
35690;DHT22;26977;44.830;-0.674;2022-12-18T00:13:51;2.60;99.90
35690;DHT22;26977;44.830;-0.674;2022-12-18T00:16:20;2.50;99.90
35690;DHT22;26977;44.830;-0.674;2022-12-18T00:18:47;2.50;99.90
35690;DHT22;26977;44.830;-0.674;2022-12-18T00:21:14;2.50;99.90
35690;DHT22;26977;44.830;-0.674;2022-12-18T00:23:42;2.50;99.90
35690;DHT22;26977;44.830;-0.674;2022-12-18T00:26:11;2.50;99.90
35690;DHT22;26977;44.830;-0.674;2022-12-18T00:28:40;2.40;99.90
35690;DHT22;26977;44.830;-0.674;2022-12-18T00:31:08;2.40;99.90
35690;DHT22;26977;44.830;-0.674;2022-12-18T00:33:35;2.40;99.90
35690;DHT22;26977;44.830;-0.674;2022-12-18T00:36:05;2.40;99.90
35690;DHT22;26977;44.830;-0.674;2022-12-18T00:38:32;2.30;99.90
35690;DHT22;26977;44.830;-0.674;2022-12-18T00:40:59;2.30;99.90
35690;DHT22;26977;44.830;-0.674;2022-12-18T00:43:24;2.40;99.90
35690;DHT22;26977;44.830;-0.674;2022-12-18T00:45:51;2.40;99.90
35690;DHT22;26977;44.830;-0.674;2022-12-18T00:48:17;2.50;99.90
35690;DHT22;26977;44.830;-0.674;2022-12-18T00:50:43;2.40;99.90
35690;DHT22;26977;44.830;-0.674;2022-12-18T00:53:09;2.40;99.90
35690;DHT22;26977;44.830;-0.674;2022-12-18T00:55:39;2.40;99.90
35690;DHT22;26977;44.830;-0.674;2022-12-18T00:58:05;2.40;99.90
35690;DHT22;26977;44.830;-0.674;2022-12-18T01:00:31;2.40;99.90
35690;DHT22;26977;44.830;-0.674;2022-12-18T01:02:57;2.40;99.90
35690;DHT22;26977;44.830;-0.674;2022-12-18T01:05:23;2.40;99.90
35690;DHT22;26977;44.830;-0.674;2022-12-18T01:07:50;2.40;99.90
35690;DHT22;26977;44.830;-0.674;2022-12-18T01:10:15;2.40;99.90
35690;DHT22;26977;44.830;-0.674;2022-12-18T01:12:41;2.30;99.90
35690;DHT22;26977;44.830;-0.674;2022-12-18T01:15:07;2.40;99.90
35690;DHT22;26977;44.830;-0.674;2022-12-18T01:17:34;2.30;99.90
35690;DHT22;26977;44.830;-0.674;2022-12-18T01:19:59;2.30;99.90
35690;DHT22;26977;44.830;-0.674;2022-12-18T01:22:25;2.40;99.90
35690;DHT22;26977;44.830;-0.674;2022-12-18T01:24:51;2.40;99.90
35690;DHT22;26977;44.830;-0.674;2022-12-18T01:27:17;2.40;99.90
35690;DHT22;26977;44.830;-0.674;2022-12-18T01:29:43;2.40;99.90
35690;DHT22;26977;44.830;-0.674;2022-12-18T01:32:10;2.40;99.90
35690;DHT22;26977;44.830;-0.674;2022-12-18T01:34:36;2.40;99.90
35690;DHT22;26977;44.830;-0.674;2022-12-18T01:37:04;2.40;99.90
35690;DHT22;26977;44.830;-0.674;2022-12-18T01:39:31;2.40;99.90
35690;DHT22;26977;44.830;-0.674;2022-12-18T01:41:58;2.40;99.90
35690;DHT22;26977;44.830;-0.674;2022-12-18T01:50:08;2.40;99.90
35690;DHT22;26977;44.830;-0.674;2022-12-18T01:52:33;2.40;99.90
35690;DHT22;26977;44.830;-0.674;2022-12-18T01:55:01;2.40;99.90
35690;DHT22;26977;44.830;-0.674;2022-12-18T01:57:28;2.40;99.90
35690;DHT22;26977;44.830;-0.674;2022-12-18T01:59:59;2.40;99.90
35690;DHT22;26977;44.830;-0.674;2022-12-18T02:02:28;2.30;99.90
35690;DHT22;26977;44.830;-0.674;2022-12-18T02:04:55;2.30;99.90
35690;DHT22;26977;44.830;-0.674;2022-12-18T02:13:19;2.30;99.90
35690;DHT22;26977;44.830;-0.674;2022-12-18T02:18:48;2.30;99.90
35690;DHT22;26977;44.830;-0.674;2022-12-18T02:21:20;2.30;99.90
35690;DHT22;26977;44.830;-0.674;2022-12-18T02:24:01;2.30;99.90
35690;DHT22;26977;44.830;-0.674;2022-12-18T02:26:56;2.30;99.90
35690;DHT22;26977;44.830;-0.674;2022-12-18T02:29:38;2.30;99.90
35690;DHT22;26977;44.830;-0.674;2022-12-18T02:32:10;2.30;99.90
35690;DHT22;26977;44.830;-0.674;2022-12-18T02:34:39;2.30;99.90
35690;DHT22;26977;44.830;-0.674;2022-12-18T02:37:09;2.30;99.90
35690;DHT22;26977;44.830;-0.674;2022-12-18T02:39:38;2.20;99.90
35690;DHT22;26977;44.830;-0.674;2022-12-18T02:42:05;2.30;99.90
35690;DHT22;26977;44.830;-0.674;2022-12-18T02:44:45;2.30;99.90
35690;DHT22;26977;44.830;-0.674;2022-12-18T02:47:13;2.20;99.90
35690;DHT22;26977;44.830;-0.674;2022-12-18T02:56:30;2.30;99.90
35690;DHT22;26977;44.830;-0.674;2022-12-18T02:59:15;2.30;99.90
35690;DHT22;26977;44.830;-0.674;2022-12-18T03:04:30;2.40;99.90
35690;DHT22;26977;44.830;-0.674;2022-12-18T03:07:20;2.30;99.90
35690;DHT22;26977;44.830;-0.674;2022-12-18T03:09:51;2.30;99.90
35690;DHT22;26977;44.830;-0.674;2022-12-18T03:12:31;2.30;99.90
35690;DHT22;26977;44.830;-0.674;2022-12-18T03:15:12;2.20;99.90
35690;DHT22;26977;44.830;-0.674;2022-12-18T03:17:44;2.20;99.90
35690;DHT22;26977;44.830;-0.674;2022-12-18T03:20:18;2.20;99.90
35690;DHT22;26977;44.830;-0.674;2022-12-18T03:22:47;2.20;99.90
35690;DHT22;26977;44.830;-0.674;2022-12-18T03:25:16;2.20;99.90
35690;DHT22;26977;44.830;-0.674;2022-12-18T03:27:47;2.30;99.90
35690;DHT22;26977;44.830;-0.674;2022-12-18T03:30:15;2.20;99.90
35690;DHT22;26977;44.830;-0.674;2022-12-18T03:33:08;2.30;99.90
35690;DHT22;26977;44.830;-0.674;2022-12-18T03:35:37;2.20;99.90
35690;DHT22;26977;44.830;-0.674;2022-12-18T03:38:05;2.20;99.90
35690;DHT22;26977;44.830;-0.674;2022-12-18T03:46:33;2.30;99.90
35690;DHT22;26977;44.830;-0.674;2022-12-18T03:49:33;2.30;99.90
35690;DHT22;26977;44.830;-0.674;2022-12-18T03:54:27;2.20;99.90
35690;DHT22;26977;44.830;-0.674;2022-12-18T03:57:25;2.20;99.90
35690;DHT22;26977;44.830;-0.674;2022-12-18T03:59:52;2.10;99.90
35690;DHT22;26977;44.830;-0.674;2022-12-18T04:02:21;2.10;99.90
35690;DHT22;26977;44.830;-0.674;2022-12-18T04:04:58;2.10;99.90
35690;DHT22;26977;44.830;-0.674;2022-12-18T04:07:25;2.10;99.90
35690;DHT22;26977;44.830;-0.674;2022-12-18T04:09:54;2.10;99.90
35690;DHT22;26977;44.830;-0.674;2022-12-18T04:12:23;2.10;99.90
35690;DHT22;26977;44.830;-0.674;2022-12-18T04:14:49;2.20;99.90
35690;DHT22;26977;44.830;-0.674;2022-12-18T04:17:14;2.20;99.90
35690;DHT22;26977;44.830;-0.674;2022-12-18T04:19:40;2.20;99.90
35690;DHT22;26977;44.830;-0.674;2022-12-18T04:22:06;2.30;99.90
35690;DHT22;26977;44.830;-0.674;2022-12-18T04:24:31;2.30;99.90
35690;DHT22;26977;44.830;-0.674;2022-12-18T04:26:57;2.30;99.90
35690;DHT22;26977;44.830;-0.674;2022-12-18T04:29:23;2.30;99.90
35690;DHT22;26977;44.830;-0.674;2022-12-18T04:31:48;2.30;99.90
35690;DHT22;26977;44.830;-0.674;2022-12-18T04:34:14;2.30;99.90
35690;DHT22;26977;44.830;-0.674;2022-12-18T04:36:40;2.30;99.90
35690;DHT22;26977;44.830;-0.674;2022-12-18T04:39:06;2.30;99.90
35690;DHT22;26977;44.830;-0.674;2022-12-18T04:41:32;2.30;99.90
35690;DHT22;26977;44.830;-0.674;2022-12-18T04:43:58;2.30;99.90
35690;DHT22;26977;44.830;-0.674;2022-12-18T04:46:23;2.30;99.90
35690;DHT22;26977;44.830;-0.674;2022-12-18T04:48:52;2.30;99.90
35690;DHT22;26977;44.830;-0.674;2022-12-18T04:51:19;2.30;99.90
35690;DHT22;26977;44.830;-0.674;2022-12-18T04:53:45;2.30;99.90
35690;DHT22;26977;44.830;-0.674;2022-12-18T04:56:15;2.30;99.90
35690;DHT22;26977;44.830;-0.674;2022-12-18T04:58:43;2.30;99.90
35690;DHT22;26977;44.830;-0.674;2022-12-18T05:01:09;2.30;99.90
35690;DHT22;26977;44.830;-0.674;2022-12-18T05:03:36;2.30;99.90
35690;DHT22;26977;44.830;-0.674;2022-12-18T05:06:03;2.30;99.90
35690;DHT22;26977;44.830;-0.674;2022-12-18T05:08:29;2.30;99.90
35690;DHT22;26977;44.830;-0.674;2022-12-18T05:11:02;2.30;99.90
35690;DHT22;26977;44.830;-0.674;2022-12-18T05:13:29;2.30;99.90
35690;DHT22;26977;44.830;-0.674;2022-12-18T05:15:55;2.30;99.90
35690;DHT22;26977;44.830;-0.674;2022-12-18T05:18:22;2.30;99.90
35690;DHT22;26977;44.830;-0.674;2022-12-18T05:20:48;2.30;99.90
35690;DHT22;26977;44.830;-0.674;2022-12-18T05:23:15;2.30;99.90
35690;DHT22;26977;44.830;-0.674;2022-12-18T05:25:41;2.40;99.90
35690;DHT22;26977;44.830;-0.674;2022-12-18T05:28:07;2.40;99.90
35690;DHT22;26977;44.830;-0.674;2022-12-18T05:30:34;2.40;99.90
35690;DHT22;26977;44.830;-0.674;2022-12-18T05:32:59;2.40;99.90
35690;DHT22;26977;44.830;-0.674;2022-12-18T05:35:25;2.40;99.90
35690;DHT22;26977;44.830;-0.674;2022-12-18T05:37:51;2.40;99.90
35690;DHT22;26977;44.830;-0.674;2022-12-18T05:40:16;2.50;99.90
35690;DHT22;26977;44.830;-0.674;2022-12-18T05:42:42;2.50;99.90
35690;DHT22;26977;44.830;-0.674;2022-12-18T05:45:08;2.50;99.90
35690;DHT22;26977;44.830;-0.674;2022-12-18T05:47:34;2.50;99.90
35690;DHT22;26977;44.830;-0.674;2022-12-18T05:50:00;2.50;99.90
35690;DHT22;26977;44.830;-0.674;2022-12-18T05:52:25;2.60;99.90
35690;DHT22;26977;44.830;-0.674;2022-12-18T05:54:53;2.60;99.90
35690;DHT22;26977;44.830;-0.674;2022-12-18T05:57:19;2.60;99.90
35690;DHT22;26977;44.830;-0.674;2022-12-18T05:59:45;2.60;99.90
35690;DHT22;26977;44.830;-0.674;2022-12-18T06:02:11;2.70;99.90
35690;DHT22;26977;44.830;-0.674;2022-12-18T06:04:37;2.70;99.90
35690;DHT22;26977;44.830;-0.674;2022-12-18T06:07:02;2.70;99.90
35690;DHT22;26977;44.830;-0.674;2022-12-18T06:09:29;2.70;99.90
35690;DHT22;26977;44.830;-0.674;2022-12-18T06:11:54;2.70;99.90
35690;DHT22;26977;44.830;-0.674;2022-12-18T06:14:20;2.80;99.90
35690;DHT22;26977;44.830;-0.674;2022-12-18T06:16:46;2.80;99.90
35690;DHT22;26977;44.830;-0.674;2022-12-18T06:19:15;2.80;99.90
35690;DHT22;26977;44.830;-0.674;2022-12-18T06:21:41;2.80;99.90
35690;DHT22;26977;44.830;-0.674;2022-12-18T06:24:07;2.80;99.90
35690;DHT22;26977;44.830;-0.674;2022-12-18T06:26:32;2.90;99.90
35690;DHT22;26977;44.830;-0.674;2022-12-18T06:28:58;2.90;99.90
35690;DHT22;26977;44.830;-0.674;2022-12-18T06:31:24;2.90;99.90
35690;DHT22;26977;44.830;-0.674;2022-12-18T06:34:03;3.00;99.90
35690;DHT22;26977;44.830;-0.674;2022-12-18T06:36:28;3.00;99.90
35690;DHT22;26977;44.830;-0.674;2022-12-18T06:38:54;3.00;99.90
35690;DHT22;26977;44.830;-0.674;2022-12-18T06:41:21;3.00;99.90
35690;DHT22;26977;44.830;-0.674;2022-12-18T06:43:46;3.10;99.90
35690;DHT22;26977;44.830;-0.674;2022-12-18T06:46:12;3.10;99.90
35690;DHT22;26977;44.830;-0.674;2022-12-18T06:48:38;3.10;99.90
35690;DHT22;26977;44.830;-0.674;2022-12-18T06:51:05;3.20;99.90
35690;DHT22;26977;44.830;-0.674;2022-12-18T06:53:32;3.20;99.90
35690;DHT22;26977;44.830;-0.674;2022-12-18T06:56:02;3.20;99.90
35690;DHT22;26977;44.830;-0.674;2022-12-18T06:58:28;3.20;99.90
35690;DHT22;26977;44.830;-0.674;2022-12-18T07:00:58;3.30;99.90
35690;DHT22;26977;44.830;-0.674;2022-12-18T07:03:24;3.30;99.90
35690;DHT22;26977;44.830;-0.674;2022-12-18T07:05:50;3.30;99.90
35690;DHT22;26977;44.830;-0.674;2022-12-18T07:08:15;3.30;99.90
35690;DHT22;26977;44.830;-0.674;2022-12-18T07:10:42;3.40;99.90
35690;DHT22;26977;44.830;-0.674;2022-12-18T07:13:08;3.40;99.90
35690;DHT22;26977;44.830;-0.674;2022-12-18T07:15:35;3.40;99.90
35690;DHT22;26977;44.830;-0.674;2022-12-18T07:18:02;3.40;99.90
35690;DHT22;26977;44.830;-0.674;2022-12-18T07:20:28;3.40;99.90
35690;DHT22;26977;44.830;-0.674;2022-12-18T07:22:53;3.50;99.90
35690;DHT22;26977;44.830;-0.674;2022-12-18T07:25:19;3.50;99.90
35690;DHT22;26977;44.830;-0.674;2022-12-18T07:27:45;3.50;99.90
35690;DHT22;26977;44.830;-0.674;2022-12-18T07:30:10;3.50;99.90
35690;DHT22;26977;44.830;-0.674;2022-12-18T07:32:36;3.60;99.90
35690;DHT22;26977;44.830;-0.674;2022-12-18T07:35:02;3.60;99.90
35690;DHT22;26977;44.830;-0.674;2022-12-18T07:37:28;3.70;99.90
35690;DHT22;26977;44.830;-0.674;2022-12-18T07:39:54;3.70;99.90
35690;DHT22;26977;44.830;-0.674;2022-12-18T07:42:19;3.70;99.90
35690;DHT22;26977;44.830;-0.674;2022-12-18T07:44:58;3.70;99.90
35690;DHT22;26977;44.830;-0.674;2022-12-18T07:47:24;3.80;99.90
35690;DHT22;26977;44.830;-0.674;2022-12-18T07:49:50;3.80;99.90
35690;DHT22;26977;44.830;-0.674;2022-12-18T07:52:15;3.80;99.90
35690;DHT22;26977;44.830;-0.674;2022-12-18T07:54:42;3.90;99.90
35690;DHT22;26977;44.830;-0.674;2022-12-18T07:57:07;3.90;99.90
35690;DHT22;26977;44.830;-0.674;2022-12-18T07:59:34;3.90;99.90
35690;DHT22;26977;44.830;-0.674;2022-12-18T08:01:59;4.00;99.90
35690;DHT22;26977;44.830;-0.674;2022-12-18T08:04:25;4.00;99.90
35690;DHT22;26977;44.830;-0.674;2022-12-18T08:06:52;4.00;99.90
35690;DHT22;26977;44.830;-0.674;2022-12-18T08:09:17;4.10;99.90
35690;DHT22;26977;44.830;-0.674;2022-12-18T08:11:43;4.10;99.90
35690;DHT22;26977;44.830;-0.674;2022-12-18T08:14:09;4.10;99.90
35690;DHT22;26977;44.830;-0.674;2022-12-18T08:16:35;4.10;99.90
35690;DHT22;26977;44.830;-0.674;2022-12-18T08:19:00;4.20;99.90
35690;DHT22;26977;44.830;-0.674;2022-12-18T08:21:28;4.30;99.90
35690;DHT22;26977;44.830;-0.674;2022-12-18T08:24:00;4.30;99.90
35690;DHT22;26977;44.830;-0.674;2022-12-18T08:26:29;4.30;99.90
35690;DHT22;26977;44.830;-0.674;2022-12-18T08:28:56;4.30;99.90
35690;DHT22;26977;44.830;-0.674;2022-12-18T08:31:22;4.30;99.90
35690;DHT22;26977;44.830;-0.674;2022-12-18T08:33:51;4.40;99.90
35690;DHT22;26977;44.830;-0.674;2022-12-18T08:36:18;4.40;99.90
35690;DHT22;26977;44.830;-0.674;2022-12-18T08:38:45;4.40;99.90
35690;DHT22;26977;44.830;-0.674;2022-12-18T08:41:13;4.40;99.90
35690;DHT22;26977;44.830;-0.674;2022-12-18T08:43:39;4.50;99.90
35690;DHT22;26977;44.830;-0.674;2022-12-18T08:46:26;4.50;99.90
35690;DHT22;26977;44.830;-0.674;2022-12-18T08:48:53;4.50;99.90
35690;DHT22;26977;44.830;-0.674;2022-12-18T08:51:19;4.60;99.90
35690;DHT22;26977;44.830;-0.674;2022-12-18T08:53:46;4.60;99.90
35690;DHT22;26977;44.830;-0.674;2022-12-18T08:56:14;4.60;99.90
35690;DHT22;26977;44.830;-0.674;2022-12-18T08:58:40;4.70;99.90
35690;DHT22;26977;44.830;-0.674;2022-12-18T09:01:09;4.70;99.90
35690;DHT22;26977;44.830;-0.674;2022-12-18T09:03:37;4.80;99.90
35690;DHT22;26977;44.830;-0.674;2022-12-18T09:06:04;4.80;99.90
35690;DHT22;26977;44.830;-0.674;2022-12-18T09:08:30;4.80;99.90
35690;DHT22;26977;44.830;-0.674;2022-12-18T09:10:56;4.90;99.90
35690;DHT22;26977;44.830;-0.674;2022-12-18T09:13:22;4.90;99.90
35690;DHT22;26977;44.830;-0.674;2022-12-18T09:15:53;4.90;99.90
35690;DHT22;26977;44.830;-0.674;2022-12-18T09:18:21;4.90;99.90
35690;DHT22;26977;44.830;-0.674;2022-12-18T09:20:47;5.00;99.90
35690;DHT22;26977;44.830;-0.674;2022-12-18T09:23:13;4.90;99.90
35690;DHT22;26977;44.830;-0.674;2022-12-18T09:25:39;5.00;99.90
35690;DHT22;26977;44.830;-0.674;2022-12-18T09:28:10;5.00;99.90
35690;DHT22;26977;44.830;-0.674;2022-12-18T09:30:44;5.10;99.90
35690;DHT22;26977;44.830;-0.674;2022-12-18T09:33:10;5.10;99.90
35690;DHT22;26977;44.830;-0.674;2022-12-18T09:35:39;5.20;99.90
35690;DHT22;26977;44.830;-0.674;2022-12-18T09:38:06;5.40;99.90
35690;DHT22;26977;44.830;-0.674;2022-12-18T09:40:47;5.50;99.90
35690;DHT22;26977;44.830;-0.674;2022-12-18T09:43:26;5.60;99.90
35690;DHT22;26977;44.830;-0.674;2022-12-18T09:45:57;5.70;99.90
35690;DHT22;26977;44.830;-0.674;2022-12-18T09:48:32;5.80;99.90
35690;DHT22;26977;44.830;-0.674;2022-12-18T09:51:03;5.80;99.90
35690;DHT22;26977;44.830;-0.674;2022-12-18T09:53:35;5.80;99.90
35690;DHT22;26977;44.830;-0.674;2022-12-18T09:56:04;5.80;99.90
35690;DHT22;26977;44.830;-0.674;2022-12-18T09:58:41;5.80;99.90
35690;DHT22;26977;44.830;-0.674;2022-12-18T10:01:12;6.00;99.90
35690;DHT22;26977;44.830;-0.674;2022-12-18T10:03:39;6.10;99.90
35690;DHT22;26977;44.830;-0.674;2022-12-18T10:17:11;6.80;99.90
35690;DHT22;26977;44.830;-0.674;2022-12-18T10:19:47;6.90;99.90
35690;DHT22;26977;44.830;-0.674;2022-12-18T10:27:41;7.20;99.90
35690;DHT22;26977;44.830;-0.674;2022-12-18T10:30:21;7.30;99.90
35690;DHT22;26977;44.830;-0.674;2022-12-18T10:32:47;7.30;99.90
35690;DHT22;26977;44.830;-0.674;2022-12-18T10:35:22;7.30;99.90
35690;DHT22;26977;44.830;-0.674;2022-12-18T10:38:27;7.40;99.90
35690;DHT22;26977;44.830;-0.674;2022-12-18T10:40:55;7.50;99.90
35690;DHT22;26977;44.830;-0.674;2022-12-18T10:43:23;7.60;99.90
35690;DHT22;26977;44.830;-0.674;2022-12-18T10:48:36;7.90;99.90
35690;DHT22;26977;44.830;-0.674;2022-12-18T10:51:03;8.20;99.90
35690;DHT22;26977;44.830;-0.674;2022-12-18T10:53:31;8.40;99.90
35690;DHT22;26977;44.830;-0.674;2022-12-18T10:55:59;8.60;99.90
35690;DHT22;26977;44.830;-0.674;2022-12-18T10:58:32;8.80;99.90
35690;DHT22;26977;44.830;-0.674;2022-12-18T11:01:13;9.00;99.90
35690;DHT22;26977;44.830;-0.674;2022-12-18T11:03:44;9.10;99.90
35690;DHT22;26977;44.830;-0.674;2022-12-18T11:06:20;9.10;99.90
35690;DHT22;26977;44.830;-0.674;2022-12-18T11:09:21;9.20;99.90
35690;DHT22;26977;44.830;-0.674;2022-12-18T11:11:52;9.20;99.90
35690;DHT22;26977;44.830;-0.674;2022-12-18T11:16:50;9.30;99.90
35690;DHT22;26977;44.830;-0.674;2022-12-18T11:19:20;9.20;99.90
35690;DHT22;26977;44.830;-0.674;2022-12-18T11:21:48;9.20;99.90
35690;DHT22;26977;44.830;-0.674;2022-12-18T11:24:40;9.20;99.90
35690;DHT22;26977;44.830;-0.674;2022-12-18T11:27:06;9.30;99.90
35690;DHT22;26977;44.830;-0.674;2022-12-18T11:29:41;9.30;99.90
35690;DHT22;26977;44.830;-0.674;2022-12-18T11:35:11;9.60;99.90
35690;DHT22;26977;44.830;-0.674;2022-12-18T11:37:43;9.60;99.90
35690;DHT22;26977;44.830;-0.674;2022-12-18T11:40:20;9.80;99.90
35690;DHT22;26977;44.830;-0.674;2022-12-18T11:45:54;9.90;99.90
35690;DHT22;26977;44.830;-0.674;2022-12-18T11:48:27;10.00;99.90
35690;DHT22;26977;44.830;-0.674;2022-12-18T11:50:58;10.10;99.90
35690;DHT22;26977;44.830;-0.674;2022-12-18T11:53:26;10.10;99.90
35690;DHT22;26977;44.830;-0.674;2022-12-18T11:56:14;10.20;99.90
35690;DHT22;26977;44.830;-0.674;2022-12-18T12:01:48;10.50;99.90
35690;DHT22;26977;44.830;-0.674;2022-12-18T12:09:32;11.00;99.90
35690;DHT22;26977;44.830;-0.674;2022-12-18T12:12:36;10.90;99.90
35690;DHT22;26977;44.830;-0.674;2022-12-18T12:17:53;11.10;99.90
35690;DHT22;26977;44.830;-0.674;2022-12-18T12:20:46;11.10;99.90
35690;DHT22;26977;44.830;-0.674;2022-12-18T12:25:52;11.10;99.90
35690;DHT22;26977;44.830;-0.674;2022-12-18T12:28:36;11.10;99.90
35690;DHT22;26977;44.830;-0.674;2022-12-18T12:34:20;11.00;99.90
35690;DHT22;26977;44.830;-0.674;2022-12-18T12:37:25;11.00;99.90
35690;DHT22;26977;44.830;-0.674;2022-12-18T12:39:47;11.00;99.90
35690;DHT22;26977;44.830;-0.674;2022-12-18T12:42:19;11.00;99.90
35690;DHT22;26977;44.830;-0.674;2022-12-18T12:45:06;10.90;99.90
35690;DHT22;26977;44.830;-0.674;2022-12-18T12:47:41;10.80;99.90
35690;DHT22;26977;44.830;-0.674;2022-12-18T12:50:15;10.90;99.90
35690;DHT22;26977;44.830;-0.674;2022-12-18T12:52:47;11.20;99.90
35690;DHT22;26977;44.830;-0.674;2022-12-18T12:55:26;11.40;99.90
35690;DHT22;26977;44.830;-0.674;2022-12-18T12:58:19;11.60;99.90
35690;DHT22;26977;44.830;-0.674;2022-12-18T13:09:20;12.50;99.90
35690;DHT22;26977;44.830;-0.674;2022-12-18T13:11:46;12.50;99.90
35690;DHT22;26977;44.830;-0.674;2022-12-18T13:14:38;12.50;99.90
35690;DHT22;26977;44.830;-0.674;2022-12-18T13:19:52;12.60;99.90
35690;DHT22;26977;44.830;-0.674;2022-12-18T13:25:00;12.60;99.90
35690;DHT22;26977;44.830;-0.674;2022-12-18T13:43:45;12.70;99.90
35690;DHT22;26977;44.830;-0.674;2022-12-18T13:46:42;12.90;99.90
35690;DHT22;26977;44.830;-0.674;2022-12-18T13:49:25;13.00;99.90
35690;DHT22;26977;44.830;-0.674;2022-12-18T13:51:53;13.00;99.90
35690;DHT22;26977;44.830;-0.674;2022-12-18T13:54:36;13.20;99.90
35690;DHT22;26977;44.830;-0.674;2022-12-18T13:57:04;13.30;99.90
35690;DHT22;26977;44.830;-0.674;2022-12-18T13:59:39;13.30;99.90
35690;DHT22;26977;44.830;-0.674;2022-12-18T14:02:37;13.20;99.90
35690;DHT22;26977;44.830;-0.674;2022-12-18T14:05:04;13.20;99.90
35690;DHT22;26977;44.830;-0.674;2022-12-18T14:07:30;13.10;99.90
35690;DHT22;26977;44.830;-0.674;2022-12-18T14:10:00;13.10;99.90
35690;DHT22;26977;44.830;-0.674;2022-12-18T14:12:33;13.10;99.90
35690;DHT22;26977;44.830;-0.674;2022-12-18T14:15:33;13.00;99.90
35690;DHT22;26977;44.830;-0.674;2022-12-18T14:20:49;12.90;99.90
35690;DHT22;26977;44.830;-0.674;2022-12-18T14:23:38;12.70;99.90
35690;DHT22;26977;44.830;-0.674;2022-12-18T14:26:25;12.50;99.90
35690;DHT22;26977;44.830;-0.674;2022-12-18T14:28:56;12.40;99.90
35690;DHT22;26977;44.830;-0.674;2022-12-18T14:31:28;12.30;99.90
35690;DHT22;26977;44.830;-0.674;2022-12-18T14:33:54;12.20;99.90
35690;DHT22;26977;44.830;-0.674;2022-12-18T14:36:25;12.10;99.90
35690;DHT22;26977;44.830;-0.674;2022-12-18T14:38:55;12.10;99.90
35690;DHT22;26977;44.830;-0.674;2022-12-18T14:41:22;12.00;99.90
35690;DHT22;26977;44.830;-0.674;2022-12-18T14:43:51;12.00;99.90
35690;DHT22;26977;44.830;-0.674;2022-12-18T14:46:34;12.00;99.90
35690;DHT22;26977;44.830;-0.674;2022-12-18T14:49:49;12.00;99.90
35690;DHT22;26977;44.830;-0.674;2022-12-18T14:51:55;11.90;99.90
35690;DHT22;26977;44.830;-0.674;2022-12-18T14:54:23;11.90;99.90
35690;DHT22;26977;44.830;-0.674;2022-12-18T14:57:05;12.00;99.90
35690;DHT22;26977;44.830;-0.674;2022-12-18T14:59:31;12.00;99.90
35690;DHT22;26977;44.830;-0.674;2022-12-18T15:02:23;12.10;99.90
35690;DHT22;26977;44.830;-0.674;2022-12-18T15:07:46;12.80;99.90
35690;DHT22;26977;44.830;-0.674;2022-12-18T15:10:16;12.80;99.90
35690;DHT22;26977;44.830;-0.674;2022-12-18T15:20:42;12.70;99.90
35690;DHT22;26977;44.830;-0.674;2022-12-18T15:25:41;12.80;99.90
35690;DHT22;26977;44.830;-0.674;2022-12-18T15:28:22;12.80;99.90
35690;DHT22;26977;44.830;-0.674;2022-12-18T15:33:31;13.10;99.90
35690;DHT22;26977;44.830;-0.674;2022-12-18T15:35:59;13.20;99.90
35690;DHT22;26977;44.830;-0.674;2022-12-18T15:38:26;13.20;99.90
35690;DHT22;26977;44.830;-0.674;2022-12-18T15:40:53;13.10;99.90
35690;DHT22;26977;44.830;-0.674;2022-12-18T15:43:22;12.80;99.90
35690;DHT22;26977;44.830;-0.674;2022-12-18T15:46:05;12.30;99.90
35690;DHT22;26977;44.830;-0.674;2022-12-18T15:48:33;12.00;99.90
35690;DHT22;26977;44.830;-0.674;2022-12-18T15:51:00;11.80;99.90
35690;DHT22;26977;44.830;-0.674;2022-12-18T15:53:30;11.60;99.90
35690;DHT22;26977;44.830;-0.674;2022-12-18T15:55:57;11.40;99.90
35690;DHT22;26977;44.830;-0.674;2022-12-18T15:58:42;11.20;99.90
35690;DHT22;26977;44.830;-0.674;2022-12-18T16:01:09;11.00;99.90
35690;DHT22;26977;44.830;-0.674;2022-12-18T16:03:35;10.90;99.90
35690;DHT22;26977;44.830;-0.674;2022-12-18T16:06:01;10.80;99.90
35690;DHT22;26977;44.830;-0.674;2022-12-18T16:08:28;10.70;99.90
35690;DHT22;26977;44.830;-0.674;2022-12-18T16:10:55;10.60;99.90
35690;DHT22;26977;44.830;-0.674;2022-12-18T16:13:21;10.50;99.90
35690;DHT22;26977;44.830;-0.674;2022-12-18T16:15:47;10.40;99.90
35690;DHT22;26977;44.830;-0.674;2022-12-18T16:18:14;10.30;99.90
35690;DHT22;26977;44.830;-0.674;2022-12-18T16:20:40;10.30;99.90
35690;DHT22;26977;44.830;-0.674;2022-12-18T16:23:06;10.20;99.90
35690;DHT22;26977;44.830;-0.674;2022-12-18T16:25:32;10.10;99.90
35690;DHT22;26977;44.830;-0.674;2022-12-18T16:27:59;10.00;99.90
35690;DHT22;26977;44.830;-0.674;2022-12-18T16:30:27;10.00;99.90
35690;DHT22;26977;44.830;-0.674;2022-12-18T16:32:58;10.00;99.90
35690;DHT22;26977;44.830;-0.674;2022-12-18T16:35:24;10.00;99.90
35690;DHT22;26977;44.830;-0.674;2022-12-18T16:37:50;9.90;99.90
35690;DHT22;26977;44.830;-0.674;2022-12-18T16:40:16;9.90;99.90
35690;DHT22;26977;44.830;-0.674;2022-12-18T16:42:44;9.90;99.90
35690;DHT22;26977;44.830;-0.674;2022-12-18T16:45:13;9.90;99.90
35690;DHT22;26977;44.830;-0.674;2022-12-18T16:47:40;9.90;99.90
35690;DHT22;26977;44.830;-0.674;2022-12-18T16:50:09;9.80;99.90
35690;DHT22;26977;44.830;-0.674;2022-12-18T16:52:35;9.70;99.90
35690;DHT22;26977;44.830;-0.674;2022-12-18T16:55:02;9.70;99.90
35690;DHT22;26977;44.830;-0.674;2022-12-18T16:57:27;9.60;99.90
35690;DHT22;26977;44.830;-0.674;2022-12-18T16:59:53;9.50;99.90
35690;DHT22;26977;44.830;-0.674;2022-12-18T17:02:21;9.50;99.90
35690;DHT22;26977;44.830;-0.674;2022-12-18T17:04:47;9.60;99.90
35690;DHT22;26977;44.830;-0.674;2022-12-18T17:07:14;9.50;99.90
35690;DHT22;26977;44.830;-0.674;2022-12-18T17:09:40;9.40;99.90
35690;DHT22;26977;44.830;-0.674;2022-12-18T17:12:07;9.40;99.90
35690;DHT22;26977;44.830;-0.674;2022-12-18T17:14:36;9.40;99.90
35690;DHT22;26977;44.830;-0.674;2022-12-18T17:17:01;9.40;99.90
35690;DHT22;26977;44.830;-0.674;2022-12-18T17:19:27;9.50;99.90
35690;DHT22;26977;44.830;-0.674;2022-12-18T17:21:53;9.50;99.90
35690;DHT22;26977;44.830;-0.674;2022-12-18T17:24:20;9.50;99.90
35690;DHT22;26977;44.830;-0.674;2022-12-18T17:26:46;9.60;99.90
35690;DHT22;26977;44.830;-0.674;2022-12-18T17:29:15;9.60;99.90
35690;DHT22;26977;44.830;-0.674;2022-12-18T17:31:41;9.60;99.90
35690;DHT22;26977;44.830;-0.674;2022-12-18T17:34:09;9.60;99.90
35690;DHT22;26977;44.830;-0.674;2022-12-18T17:36:34;9.60;99.90
35690;DHT22;26977;44.830;-0.674;2022-12-18T17:39:01;9.70;99.90
35690;DHT22;26977;44.830;-0.674;2022-12-18T17:41:29;9.60;99.90
35690;DHT22;26977;44.830;-0.674;2022-12-18T17:43:57;9.60;99.90
35690;DHT22;26977;44.830;-0.674;2022-12-18T17:46:24;9.70;99.90
35690;DHT22;26977;44.830;-0.674;2022-12-18T17:48:53;9.70;99.90
35690;DHT22;26977;44.830;-0.674;2022-12-18T17:51:20;9.60;99.90